Allen, Indiana
Current Conditions -  °F | °C
As of 2:55 PM on Thursday 30 Oct 2014 (Local Time) from KGWB Reporting Station
Overcast Overcast  
Wind Chill: 48°   Ceiling: 4000
Heat Index: 48°   Visibility: 10mi
Dew Point: 32°   Wind: 0mph
Humidity: 54%   Direction: NA
Pressure: 30.1"   Gusts: NA
Location:  41.4608°N, 85.2531°W
Report Text: KGWB 301855Z AUTO 00000KT 10SM OVC040 09/00 A3010 RMK AO2
Loading
Personal Weather Stations






























Interactive Weather Map
Tropical Storm Tracking
New forecast layout! Learn more

10-Day Weather Forecast

Advertisements
Track Severe Weather on mobile